sensor_id;sensor_type;location;lat;lon;timestamp;pressure;altitude;pressure_sealevel;temperature;humidity
74346;BME280;62776;50.518;6.732;2023-02-01T00:00:59;96972.31;;;4.40;100.00
74346;BME280;62776;50.518;6.732;2023-02-01T00:03:50;96964.72;;;4.46;100.00
74346;BME280;62776;50.518;6.732;2023-02-01T00:06:46;96970.63;;;4.40;100.00
74346;BME280;62776;50.518;6.732;2023-02-01T00:09:34;96981.13;;;4.49;100.00
74346;BME280;62776;50.518;6.732;2023-02-01T00:12:23;96975.16;;;4.52;100.00
74346;BME280;62776;50.518;6.732;2023-02-01T00:15:12;96969.25;;;4.57;100.00
74346;BME280;62776;50.518;6.732;2023-02-01T00:18:12;96974.34;;;4.54;100.00
74346;BME280;62776;50.518;6.732;2023-02-01T00:21:11;96970.94;;;4.55;100.00
74346;BME280;62776;50.518;6.732;2023-02-01T00:24:13;96976.09;;;4.55;100.00
74346;BME280;62776;50.518;6.732;2023-02-01T00:27:07;96968.50;;;4.63;100.00
74346;BME280;62776;50.518;6.732;2023-02-01T00:29:55;96968.44;;;4.60;100.00
74346;BME280;62776;50.518;6.732;2023-02-01T00:32:51;96975.16;;;4.52;100.00
74346;BME280;62776;50.518;6.732;2023-02-01T00:35:41;96963.28;;;4.58;100.00
74346;BME280;62776;50.518;6.732;2023-02-01T00:38:33;96966.69;;;4.56;100.00
74346;BME280;62776;50.518;6.732;2023-02-01T00:41:27;96964.00;;;4.51;100.00
74346;BME280;62776;50.518;6.732;2023-02-01T00:44:17;96964.19;;;4.62;100.00
74346;BME280;62776;50.518;6.732;2023-02-01T00:47:03;96963.38;;;4.63;100.00
74346;BME280;62776;50.518;6.732;2023-02-01T00:49:52;96970.94;;;4.55;100.00
74346;BME280;62776;50.518;6.732;2023-02-01T00:52:49;96968.19;;;4.48;100.00
74346;BME280;62776;50.518;6.732;2023-02-01T00:55:49;96960.72;;;4.60;100.00
74346;BME280;62776;50.518;6.732;2023-02-01T00:58:37;96961.72;;;4.66;100.00
74346;BME280;62776;50.518;6.732;2023-02-01T01:01:36;96966.59;;;4.53;100.00
74346;BME280;62776;50.518;6.732;2023-02-01T01:04:24;96959.84;;;4.59;100.00
74346;BME280;62776;50.518;6.732;2023-02-01T01:07:13;96968.44;;;4.60;100.00
74346;BME280;62776;50.518;6.732;2023-02-01T01:10:03;96956.53;;;4.65;100.00
74346;BME280;62776;50.518;6.732;2023-02-01T01:12:49;96959.97;;;4.65;100.00
74346;BME280;62776;50.518;6.732;2023-02-01T01:15:49;96963.34;;;4.61;100.00
74346;BME280;62776;50.518;6.732;2023-02-01T01:18:36;96952.31;;;4.68;100.00
74346;BME280;62776;50.518;6.732;2023-02-01T01:21:23;96958.28;;;4.66;100.00
74346;BME280;62776;50.518;6.732;2023-02-01T01:24:12;96940.25;;;4.66;100.00
74346;BME280;62776;50.518;6.732;2023-02-01T01:26:59;96939.25;;;4.59;100.00
74346;BME280;62776;50.518;6.732;2023-02-01T01:29:47;96935.06;;;4.64;100.00
74346;BME280;62776;50.518;6.732;2023-02-01T01:32:40;96921.94;;;4.51;100.00
74346;BME280;62776;50.518;6.732;2023-02-01T01:35:28;96923.88;;;4.62;100.00
74346;BME280;62776;50.518;6.732;2023-02-01T01:38:18;96905.78;;;4.58;100.00
74346;BME280;62776;50.518;6.732;2023-02-01T01:41:23;96887.66;;;4.52;100.00
74346;BME280;62776;50.518;6.732;2023-02-01T01:47:49;96908.13;;;4.46;100.00
74346;BME280;62776;50.518;6.732;2023-02-01T01:50:54;96911.63;;;4.51;100.00
74346;BME280;62776;50.518;6.732;2023-02-01T01:54:50;96924.44;;;4.48;100.00
74346;BME280;62776;50.518;6.732;2023-02-01T01:57:18;96929.59;;;4.48;100.00
74346;BME280;62776;50.518;6.732;2023-02-01T02:00:13;96939.94;;;4.49;100.00
74346;BME280;62776;50.518;6.732;2023-02-01T02:06:59;96950.84;;;4.38;100.00
74346;BME280;62776;50.518;6.732;2023-02-01T02:09:55;96947.84;;;4.60;100.00
74346;BME280;62776;50.518;6.732;2023-02-01T02:12:48;96946.03;;;4.53;100.00
74346;BME280;62776;50.518;6.732;2023-02-01T02:15:40;96936.63;;;4.56;100.00
74346;BME280;62776;50.518;6.732;2023-02-01T02:19:19;96923.50;;;4.43;100.00
74346;BME280;62776;50.518;6.732;2023-02-01T02:32:54;96909.06;;;4.49;100.00
74346;BME280;62776;50.518;6.732;2023-02-01T02:36:12;96908.00;;;4.40;100.00
74346;BME280;62776;50.518;6.732;2023-02-01T02:50:05;96914.91;;;4.42;100.00
74346;BME280;62776;50.518;6.732;2023-02-01T02:53:18;96912.38;;;4.44;100.00
74346;BME280;62776;50.518;6.732;2023-02-01T02:56:24;96921.03;;;4.49;100.00
74346;BME280;62776;50.518;6.732;2023-02-01T02:59:31;96915.84;;;4.46;100.00
74346;BME280;62776;50.518;6.732;2023-02-01T03:02:38;96914.16;;;4.48;100.00
74346;BME280;62776;50.518;6.732;2023-02-01T03:05:47;96900.41;;;4.46;100.00
74346;BME280;62776;50.518;6.732;2023-02-01T03:08:36;96893.56;;;4.48;100.00
74346;BME280;62776;50.518;6.732;2023-02-01T03:11:22;96889.28;;;4.48;100.00
74346;BME280;62776;50.518;6.732;2023-02-01T03:14:13;96890.91;;;4.42;100.00
74346;BME280;62776;50.518;6.732;2023-02-01T03:17:16;96885.66;;;4.37;100.00
74346;BME280;62776;50.518;6.732;2023-02-01T03:20:19;96889.03;;;4.35;100.00
74346;BME280;62776;50.518;6.732;2023-02-01T03:23:22;96882.25;;;4.40;100.00
74346;BME280;62776;50.518;6.732;2023-02-01T03:29:23;96872.03;;;4.43;100.00
74346;BME280;62776;50.518;6.732;2023-02-01T03:32:14;96878.19;;;4.51;100.00
74346;BME280;62776;50.518;6.732;2023-02-01T03:35:01;96867.94;;;4.52;100.00
74346;BME280;62776;50.518;6.732;2023-02-01T03:41:18;96862.72;;;4.51;100.00
74346;BME280;62776;50.518;6.732;2023-02-01T03:44:34;96862.53;;;4.40;100.00
74346;BME280;62776;50.518;6.732;2023-02-01T03:47:37;96866.13;;;4.48;100.00
74346;BME280;62776;50.518;6.732;2023-02-01T03:50:35;96880.00;;;4.56;100.00
74346;BME280;62776;50.518;6.732;2023-02-01T03:53:31;96886.00;;;4.57;100.00
74346;BME280;62776;50.518;6.732;2023-02-01T03:56:22;96888.72;;;4.64;100.00
74346;BME280;62776;50.518;6.732;2023-02-01T03:59:09;96889.66;;;4.68;100.00
74346;BME280;62776;50.518;6.732;2023-02-01T04:02:03;96889.66;;;4.68;100.00
74346;BME280;62776;50.518;6.732;2023-02-01T04:04:53;96881.09;;;4.70;100.00
74346;BME280;62776;50.518;6.732;2023-02-01T04:07:42;96876.00;;;4.72;100.00
74346;BME280;62776;50.518;6.732;2023-02-01T04:10:42;96879.28;;;4.65;100.00
74346;BME280;62776;50.518;6.732;2023-02-01T04:13:35;96883.66;;;4.69;100.00
74346;BME280;62776;50.518;6.732;2023-02-01T04:16:24;96889.81;;;4.77;100.00
74346;BME280;62776;50.518;6.732;2023-02-01T04:19:16;96899.25;;;4.78;100.00
74346;BME280;62776;50.518;6.732;2023-02-01T04:22:08;96886.25;;;4.69;100.00
74346;BME280;62776;50.518;6.732;2023-02-01T04:25:03;96880.88;;;4.57;100.00
74346;BME280;62776;50.518;6.732;2023-02-01T04:27:51;96873.16;;;4.57;100.00
74346;BME280;62776;50.518;6.732;2023-02-01T04:30:41;96877.34;;;4.52;100.00
74346;BME280;62776;50.518;6.732;2023-02-01T04:33:33;96884.94;;;4.44;100.00
74346;BME280;62776;50.518;6.732;2023-02-01T04:36:22;96889.16;;;4.42;100.00
74346;BME280;62776;50.518;6.732;2023-02-01T04:39:12;96886.50;;;4.36;100.00
74346;BME280;62776;50.518;6.732;2023-02-01T04:41:58;96895.03;;;4.34;100.00
74346;BME280;62776;50.518;6.732;2023-02-01T04:44:45;96892.28;;;4.25;100.00
74346;BME280;62776;50.518;6.732;2023-02-01T04:47:35;96897.22;;;4.14;100.00
74346;BME280;62776;50.518;6.732;2023-02-01T04:50:24;96898.91;;;4.13;100.00
74346;BME280;62776;50.518;6.732;2023-02-01T04:53:14;96899.50;;;4.00;100.00
74346;BME280;62776;50.518;6.732;2023-02-01T04:56:30;96891.59;;;3.91;100.00
74346;BME280;62776;50.518;6.732;2023-02-01T04:59:35;96895.78;;;3.86;100.00
74346;BME280;62776;50.518;6.732;2023-02-01T05:02:22;96898.50;;;3.92;100.00
74346;BME280;62776;50.518;6.732;2023-02-01T05:05:14;96877.75;;;3.85;100.00
74346;BME280;62776;50.518;6.732;2023-02-01T05:08:13;96881.03;;;3.78;100.00
74346;BME280;62776;50.518;6.732;2023-02-01T05:10:59;96876.69;;;3.75;100.00
74346;BME280;62776;50.518;6.732;2023-02-01T05:13:50;96872.13;;;3.62;100.00
74346;BME280;62776;50.518;6.732;2023-02-01T05:16:39;96877.28;;;3.62;100.00
74346;BME280;62776;50.518;6.732;2023-02-01T05:19:35;96882.94;;;3.46;100.00
74346;BME280;62776;50.518;6.732;2023-02-01T05:22:22;96883.03;;;3.52;100.00
74346;BME280;62776;50.518;6.732;2023-02-01T05:25:24;96882.06;;;3.45;100.00
74346;BME280;62776;50.518;6.732;2023-02-01T05:28:12;96876.00;;;3.43;100.00
74346;BME280;62776;50.518;6.732;2023-02-01T05:30:59;96871.72;;;3.44;100.00
74346;BME280;62776;50.518;6.732;2023-02-01T05:33:48;96862.22;;;3.40;100.00
74346;BME280;62776;50.518;6.732;2023-02-01T05:36:40;96859.50;;;3.32;100.00
74346;BME280;62776;50.518;6.732;2023-02-01T05:39:37;96859.31;;;3.25;100.00
74346;BME280;62776;50.518;6.732;2023-02-01T05:42:26;96866.25;;;3.29;100.00
74346;BME280;62776;50.518;6.732;2023-02-01T05:45:12;96856.00;;;3.30;100.00
74346;BME280;62776;50.518;6.732;2023-02-01T05:48:02;96866.22;;;3.27;100.00
74346;BME280;62776;50.518;6.732;2023-02-01T05:50:48;96860.22;;;3.27;100.00
74346;BME280;62776;50.518;6.732;2023-02-01T05:53:38;96860.19;;;3.25;100.00
74346;BME280;62776;50.518;6.732;2023-02-01T05:56:24;96859.31;;;3.25;100.00
74346;BME280;62776;50.518;6.732;2023-02-01T06:02:10;96868.59;;;3.20;100.00
74346;BME280;62776;50.518;6.732;2023-02-01T06:05:13;96849.81;;;3.21;100.00
74346;BME280;62776;50.518;6.732;2023-02-01T06:08:02;96860.91;;;3.20;100.00
74346;BME280;62776;50.518;6.732;2023-02-01T06:11:08;96857.38;;;3.15;100.00
74346;BME280;62776;50.518;6.732;2023-02-01T06:13:54;96850.38;;;3.08;100.00
74346;BME280;62776;50.518;6.732;2023-02-01T06:16:43;96840.91;;;3.07;100.00
74346;BME280;62776;50.518;6.732;2023-02-01T06:19:39;96836.50;;;3.01;100.00
74346;BME280;62776;50.518;6.732;2023-02-01T06:22:28;96840.03;;;3.05;100.00
74346;BME280;62776;50.518;6.732;2023-02-01T06:25:19;96845.91;;;3.01;100.00
74346;BME280;62776;50.518;6.732;2023-02-01T06:28:10;96842.31;;;2.94;100.00
74346;BME280;62776;50.518;6.732;2023-02-01T06:31:05;96837.88;;;2.87;100.00
74346;BME280;62776;50.518;6.732;2023-02-01T06:33:57;96843.16;;;2.93;100.00
74346;BME280;62776;50.518;6.732;2023-02-01T06:36:47;96844.94;;;2.95;100.00
74346;BME280;62776;50.518;6.732;2023-02-01T06:39:33;96842.47;;;3.00;100.00
74346;BME280;62776;50.518;6.732;2023-02-01T06:42:37;96859.63;;;3.01;100.00
74346;BME280;62776;50.518;6.732;2023-02-01T06:45:23;96851.84;;;2.98;100.00
74346;BME280;62776;50.518;6.732;2023-02-01T06:48:13;96854.47;;;3.01;100.00
74346;BME280;62776;50.518;6.732;2023-02-01T06:51:04;96857.00;;;2.99;100.00
74346;BME280;62776;50.518;6.732;2023-02-01T06:53:51;96858.13;;;3.11;100.00
74346;BME280;62776;50.518;6.732;2023-02-01T06:56:40;96856.34;;;3.08;100.00
74346;BME280;62776;50.518;6.732;2023-02-01T06:59:26;96861.63;;;3.13;100.00
74346;BME280;62776;50.518;6.732;2023-02-01T07:02:16;96869.44;;;3.19;100.00
74346;BME280;62776;50.518;6.732;2023-02-01T07:05:11;96870.97;;;3.11;100.00
74346;BME280;62776;50.518;6.732;2023-02-01T07:08:06;96880.66;;;3.22;100.00
74346;BME280;62776;50.518;6.732;2023-02-01T07:10:52;96879.84;;;3.25;100.00
74346;BME280;62776;50.518;6.732;2023-02-01T07:13:42;96883.28;;;3.24;100.00
74346;BME280;62776;50.518;6.732;2023-02-01T07:16:28;96895.31;;;3.26;100.00
74346;BME280;62776;50.518;6.732;2023-02-01T07:19:21;96910.81;;;3.31;100.00
74346;BME280;62776;50.518;6.732;2023-02-01T07:22:07;96902.38;;;3.35;100.00
74346;BME280;62776;50.518;6.732;2023-02-01T07:24:53;96902.38;;;3.35;100.00
74346;BME280;62776;50.518;6.732;2023-02-01T07:27:40;96912.00;;;3.45;100.00
74346;BME280;62776;50.518;6.732;2023-02-01T07:30:26;96911.22;;;3.49;100.00
74346;BME280;62776;50.518;6.732;2023-02-01T07:33:18;96917.22;;;3.48;100.00
74346;BME280;62776;50.518;6.732;2023-02-01T07:36:15;96919.25;;;3.63;100.00
74346;BME280;62776;50.518;6.732;2023-02-01T07:39:03;96917.63;;;3.66;100.00
74346;BME280;62776;50.518;6.732;2023-02-01T07:41:51;96921.97;;;3.69;100.00
74346;BME280;62776;50.518;6.732;2023-02-01T07:44:52;96919.25;;;3.63;100.00
74346;BME280;62776;50.518;6.732;2023-02-01T07:47:51;96922.16;;;3.78;100.00
74346;BME280;62776;50.518;6.732;2023-02-01T07:50:38;96930.81;;;3.81;100.00
74346;BME280;62776;50.518;6.732;2023-02-01T07:53:32;96923.19;;;3.84;100.00
74346;BME280;62776;50.518;6.732;2023-02-01T07:56:20;96907.81;;;3.87;100.00
74346;BME280;62776;50.518;6.732;2023-02-01T07:59:16;96922.47;;;3.93;100.00
74346;BME280;62776;50.518;6.732;2023-02-01T08:02:11;96917.59;;;4.03;100.00
74346;BME280;62776;50.518;6.732;2023-02-01T08:05:01;96917.66;;;4.06;100.00
74346;BME280;62776;50.518;6.732;2023-02-01T08:07:53;96912.44;;;4.03;100.00
74346;BME280;62776;50.518;6.732;2023-02-01T08:10:46;96910.72;;;4.04;100.00
74346;BME280;62776;50.518;6.732;2023-02-01T08:13:35;96911.72;;;4.10;100.00
74346;BME280;62776;50.518;6.732;2023-02-01T08:16:27;96915.25;;;4.15;100.00
74346;BME280;62776;50.518;6.732;2023-02-01T08:19:13;96912.66;;;4.15;100.00
74346;BME280;62776;50.518;6.732;2023-02-01T08:22:03;96929.03;;;4.19;100.00
74346;BME280;62776;50.518;6.732;2023-02-01T08:24:57;96935.88;;;4.17;100.00
74346;BME280;62776;50.518;6.732;2023-02-01T08:31:22;96932.28;;;4.09;100.00
74346;BME280;62776;50.518;6.732;2023-02-01T08:34:15;96936.09;;;4.29;100.00
74346;BME280;62776;50.518;6.732;2023-02-01T08:37:03;96930.06;;;4.29;100.00
74346;BME280;62776;50.518;6.732;2023-02-01T08:40:03;96942.84;;;4.24;100.00
74346;BME280;62776;50.518;6.732;2023-02-01T08:42:54;96960.22;;;4.34;100.00
74346;BME280;62776;50.518;6.732;2023-02-01T08:45:41;96958.69;;;4.44;100.00
74346;BME280;62776;50.518;6.732;2023-02-01T08:48:31;96959.53;;;4.43;100.00
74346;BME280;62776;50.518;6.732;2023-02-01T08:51:20;96960.47;;;4.46;100.00
74346;BME280;62776;50.518;6.732;2023-02-01T08:54:14;96970.78;;;4.48;100.00
74346;BME280;62776;50.518;6.732;2023-02-01T08:57:07;96976.84;;;4.50;100.00
74346;BME280;62776;50.518;6.732;2023-02-01T08:59:59;96982.00;;;4.50;100.00
74346;BME280;62776;50.518;6.732;2023-02-01T09:02:58;96981.25;;;4.55;100.00
74346;BME280;62776;50.518;6.732;2023-02-01T09:05:45;96985.66;;;4.61;100.00
74346;BME280;62776;50.518;6.732;2023-02-01T09:08:34;96983.91;;;4.60;100.00
74346;BME280;62776;50.518;6.732;2023-02-01T09:11:27;96982.13;;;4.56;100.00
74346;BME280;62776;50.518;6.732;2023-02-01T09:14:16;96985.66;;;4.61;100.00
74346;BME280;62776;50.518;6.732;2023-02-01T09:17:22;97000.97;;;4.55;100.00
74346;BME280;62776;50.518;6.732;2023-02-01T09:20:12;96986.47;;;4.60;100.00
74346;BME280;62776;50.518;6.732;2023-02-01T09:22:59;96989.91;;;4.60;100.00
74346;BME280;62776;50.518;6.732;2023-02-01T09:25:49;96988.22;;;4.62;100.00
74346;BME280;62776;50.518;6.732;2023-02-01T09:28:37;96990.84;;;4.64;100.00
74346;BME280;62776;50.518;6.732;2023-02-01T09:31:32;96991.59;;;4.58;100.00
74346;BME280;62776;50.518;6.732;2023-02-01T09:34:26;96993.19;;;4.52;100.00
74346;BME280;62776;50.518;6.732;2023-02-01T09:40:36;96987.19;;;4.53;100.00
74346;BME280;62776;50.518;6.732;2023-02-01T09:43:49;97000.84;;;4.49;100.00
74346;BME280;62776;50.518;6.732;2023-02-01T09:46:43;96990.84;;;4.64;100.00
74346;BME280;62776;50.518;6.732;2023-02-01T09:49:39;96996.69;;;4.55;100.00
74346;BME280;62776;50.518;6.732;2023-02-01T09:55:38;96994.13;;;4.55;100.00
74346;BME280;62776;50.518;6.732;2023-02-01T10:01:30;96977.16;;;4.66;100.00
74346;BME280;62776;50.518;6.732;2023-02-01T10:04:18;96989.19;;;4.67;100.00
74346;BME280;62776;50.518;6.732;2023-02-01T10:10:47;96988.22;;;4.62;100.00
74346;BME280;62776;50.518;6.732;2023-02-01T10:26:37;96982.47;;;4.74;100.00
74346;BME280;62776;50.518;6.732;2023-02-01T10:29:38;96973.84;;;4.73;100.00
74346;BME280;62776;50.518;6.732;2023-02-01T10:32:33;96974.78;;;4.77;100.00
74346;BME280;62776;50.518;6.732;2023-02-01T10:35:47;96974.53;;;4.63;100.00
74346;BME280;62776;50.518;6.732;2023-02-01T10:38:46;96977.56;;;4.86;100.00
74346;BME280;62776;50.518;6.732;2023-02-01T10:41:39;96974.97;;;4.86;100.00
74346;BME280;62776;50.518;6.732;2023-02-01T10:44:39;96962.25;;;4.95;100.00
74346;BME280;62776;50.518;6.732;2023-02-01T10:47:38;96958.94;;;5.02;100.00
74346;BME280;62776;50.518;6.732;2023-02-01T10:50:33;96951.31;;;5.08;100.00
74346;BME280;62776;50.518;6.732;2023-02-01T10:56:31;96968.56;;;5.12;100.00
74346;BME280;62776;50.518;6.732;2023-02-01T10:59:39;96960.84;;;5.12;100.00
74346;BME280;62776;50.518;6.732;2023-02-01T11:02:33;96968.38;;;5.03;100.00
74346;BME280;62776;50.518;6.732;2023-02-01T11:05:24;96968.56;;;5.11;100.00
74346;BME280;62776;50.518;6.732;2023-02-01T11:08:16;96959.97;;;5.12;100.00
74346;BME280;62776;50.518;6.732;2023-02-01T11:11:07;96958.28;;;5.14;100.00
74346;BME280;62776;50.518;6.732;2023-02-01T11:14:04;96957.44;;;5.13;100.00
74346;BME280;62776;50.518;6.732;2023-02-01T11:17:26;96950.31;;;5.00;100.00
74346;BME280;62776;50.518;6.732;2023-02-01T11:20:19;96949.72;;;5.15;100.00
74346;BME280;62776;50.518;6.732;2023-02-01T11:23:17;96936.88;;;5.16;100.00
74346;BME280;62776;50.518;6.732;2023-02-01T11:26:13;96938.75;;;5.28;100.00
74346;BME280;62776;50.518;6.732;2023-02-01T11:29:08;96925.09;;;5.33;100.00
74346;BME280;62776;50.518;6.732;2023-02-01T11:32:00;96917.47;;;5.40;100.00
74346;BME280;62776;50.518;6.732;2023-02-01T11:35:02;96908.91;;;5.41;100.00
74346;BME280;62776;50.518;6.732;2023-02-01T11:37:59;96903.84;;;5.48;100.00
74346;BME280;62776;50.518;6.732;2023-02-01T11:40:54;96902.31;;;5.61;100.00
74346;BME280;62776;50.518;6.732;2023-02-01T11:44:21;96887.47;;;5.45;100.00
74346;BME280;62776;50.518;6.732;2023-02-01T11:47:29;96898.88;;;5.60;100.00
74346;BME280;62776;50.518;6.732;2023-02-01T11:50:47;96903.22;;;5.63;100.00
74346;BME280;62776;50.518;6.732;2023-02-01T11:57:37;96906.81;;;5.74;100.00
74346;BME280;62776;50.518;6.732;2023-02-01T12:06:56;96871.69;;;5.83;100.00
74346;BME280;62776;50.518;6.732;2023-02-01T12:13:28;96858.75;;;5.79;100.00
74346;BME280;62776;50.518;6.732;2023-02-01T12:16:28;96856.38;;;5.92;100.00
74346;BME280;62776;50.518;6.732;2023-02-01T12:29:02;96846.94;;;5.96;100.00
74346;BME280;62776;50.518;6.732;2023-02-01T12:32:06;96836.94;;;6.23;100.00
74346;BME280;62776;50.518;6.732;2023-02-01T12:38:12;96858.63;;;6.40;99.99
74346;BME280;62776;50.518;6.732;2023-02-01T12:41:27;96859.47;;;6.38;100.00
74346;BME280;62776;50.518;6.732;2023-02-01T12:48:40;96857.06;;;6.54;100.00
74346;BME280;62776;50.518;6.732;2023-02-01T12:51:21;96857.13;;;6.62;100.00
74346;BME280;62776;50.518;6.732;2023-02-01T12:54:04;96866.69;;;6.71;99.03
74346;BME280;62776;50.518;6.732;2023-02-01T13:01:08;96841.72;;;6.70;95.35
74346;BME280;62776;50.518;6.732;2023-02-01T13:10:27;96840.84;;;6.71;94.42
74346;BME280;62776;50.518;6.732;2023-02-01T13:13:24;96850.50;;;6.90;95.85
74346;BME280;62776;50.518;6.732;2023-02-01T13:16:38;96851.38;;;6.89;95.63
74346;BME280;62776;50.518;6.732;2023-02-01T13:19:45;96857.44;;;6.94;95.07
74346;BME280;62776;50.518;6.732;2023-02-01T13:22:49;96845.41;;;6.99;94.74
74346;BME280;62776;50.518;6.732;2023-02-01T13:25:50;96835.88;;;6.92;92.39
74346;BME280;62776;50.518;6.732;2023-02-01T13:28:50;96834.97;;;6.85;92.61
74346;BME280;62776;50.518;6.732;2023-02-01T13:31:59;96827.09;;;6.72;92.29
74346;BME280;62776;50.518;6.732;2023-02-01T13:38:56;96822.75;;;6.65;92.02
74346;BME280;62776;50.518;6.732;2023-02-01T13:41:55;96832.22;;;6.69;93.68
74346;BME280;62776;50.518;6.732;2023-02-01T13:44:59;96845.97;;;6.66;93.39
74346;BME280;62776;50.518;6.732;2023-02-01T13:47:48;96842.56;;;6.69;93.59
74346;BME280;62776;50.518;6.732;2023-02-01T13:50:54;96830.47;;;6.65;93.57
74346;BME280;62776;50.518;6.732;2023-02-01T13:53:49;96826.09;;;6.58;93.33
74346;BME280;62776;50.518;6.732;2023-02-01T13:56:45;96840.72;;;6.56;93.86
74346;BME280;62776;50.518;6.732;2023-02-01T14:08:35;96838.03;;;6.45;95.56
74346;BME280;62776;50.518;6.732;2023-02-01T14:20:38;96837.75;;;6.19;98.54
74346;BME280;62776;50.518;6.732;2023-02-01T14:23:30;96838.72;;;6.29;99.50
74346;BME280;62776;50.518;6.732;2023-02-01T14:26:46;96833.34;;;6.09;99.19
74346;BME280;62776;50.518;6.732;2023-02-01T14:29:59;96843.63;;;6.06;100.00
74346;BME280;62776;50.518;6.732;2023-02-01T14:32:50;96842.00;;;6.14;100.00
74346;BME280;62776;50.518;6.732;2023-02-01T14:35:59;96848.78;;;6.06;100.00
74346;BME280;62776;50.518;6.732;2023-02-01T14:38:53;96845.50;;;6.19;100.00
74346;BME280;62776;50.518;6.732;2023-02-01T14:42:13;96849.63;;;6.05;100.00
74346;BME280;62776;50.518;6.732;2023-02-01T14:51:13;96836.81;;;6.11;100.00
74346;BME280;62776;50.518;6.732;2023-02-01T14:54:03;96864.41;;;6.17;100.00
74346;BME280;62776;50.518;6.732;2023-02-01T14:56:53;96867.81;;;6.14;100.00
74346;BME280;62776;50.518;6.732;2023-02-01T15:00:23;96865.94;;;6.01;100.00
74346;BME280;62776;50.518;6.732;2023-02-01T15:06:33;96872.00;;;6.06;100.00
74346;BME280;62776;50.518;6.732;2023-02-01T15:09:31;96869.47;;;6.09;100.00
74346;BME280;62776;50.518;6.732;2023-02-01T15:12:26;96865.22;;;6.16;100.00
74346;BME280;62776;50.518;6.732;2023-02-01T15:15:24;96871.22;;;6.13;100.00
74346;BME280;62776;50.518;6.732;2023-02-01T15:18:19;96871.22;;;6.12;100.00
74346;BME280;62776;50.518;6.732;2023-02-01T15:21:19;96869.44;;;6.06;100.00
74346;BME280;62776;50.518;6.732;2023-02-01T15:24:22;96865.16;;;6.07;100.00
74346;BME280;62776;50.518;6.732;2023-02-01T15:27:10;96867.78;;;6.13;100.00
74346;BME280;62776;50.518;6.732;2023-02-01T15:30:22;96860.69;;;5.97;100.00
74346;BME280;62776;50.518;6.732;2023-02-01T15:33:15;96868.56;;;6.06;100.00
74346;BME280;62776;50.518;6.732;2023-02-01T15:36:18;96863.31;;;6.00;100.00
74346;BME280;62776;50.518;6.732;2023-02-01T15:39:19;96859.03;;;6.02;100.00
74346;BME280;62776;50.518;6.732;2023-02-01T15:42:13;96852.22;;;6.05;100.00
74346;BME280;62776;50.518;6.732;2023-02-01T15:45:19;96867.56;;;5.93;100.00
74346;BME280;62776;50.518;6.732;2023-02-01T15:48:19;96850.38;;;5.97;100.00
74346;BME280;62776;50.518;6.732;2023-02-01T15:51:18;96855.41;;;5.86;100.00
74346;BME280;62776;50.518;6.732;2023-02-01T15:54:25;96850.97;;;5.77;100.00
74346;BME280;62776;50.518;6.732;2023-02-01T15:57:22;96855.25;;;5.74;100.00
74346;BME280;62776;50.518;6.732;2023-02-01T16:00:51;96848.25;;;5.67;100.00
74346;BME280;62776;50.518;6.732;2023-02-01T16:03:44;96852.56;;;5.68;100.00
74346;BME280;62776;50.518;6.732;2023-02-01T16:06:35;96851.78;;;5.73;100.00
74346;BME280;62776;50.518;6.732;2023-02-01T16:09:35;96861.47;;;5.29;100.00
74346;BME280;62776;50.518;6.732;2023-02-01T16:12:32;96855.84;;;5.58;100.00
74346;BME280;62776;50.518;6.732;2023-02-01T16:15:29;96855.78;;;5.52;100.00
74346;BME280;62776;50.518;6.732;2023-02-01T16:18:26;96868.78;;;5.59;100.00
74346;BME280;62776;50.518;6.732;2023-02-01T16:21:13;96866.25;;;5.64;100.00
74346;BME280;62776;50.518;6.732;2023-02-01T16:24:05;96867.94;;;5.60;100.00
74346;BME280;62776;50.518;6.732;2023-02-01T16:27:23;96877.16;;;5.45;100.00
74346;BME280;62776;50.518;6.732;2023-02-01T16:30:16;96881.63;;;5.56;100.00
74346;BME280;62776;50.518;6.732;2023-02-01T16:33:13;96891.94;;;5.55;100.00
74346;BME280;62776;50.518;6.732;2023-02-01T16:36:11;96890.22;;;5.57;100.00
74346;BME280;62776;50.518;6.732;2023-02-01T16:39:02;96890.13;;;5.49;100.00
74346;BME280;62776;50.518;6.732;2023-02-01T16:45:46;96896.06;;;5.44;100.00
74346;BME280;62776;50.518;6.732;2023-02-01T16:48:42;96900.16;;;5.31;100.00
74346;BME280;62776;50.518;6.732;2023-02-01T16:51:34;96900.25;;;5.35;100.00
74346;BME280;62776;50.518;6.732;2023-02-01T16:54:21;96900.19;;;5.32;100.00
74346;BME280;62776;50.518;6.732;2023-02-01T16:57:19;96909.34;;;5.15;100.00
74346;BME280;62776;50.518;6.732;2023-02-01T17:06:34;96922.06;;;5.06;100.00
74346;BME280;62776;50.518;6.732;2023-02-01T17:09:33;96933.25;;;5.08;100.00
74346;BME280;62776;50.518;6.732;2023-02-01T17:12:46;96936.47;;;4.95;100.00
74346;BME280;62776;50.518;6.732;2023-02-01T17:19:06;96939.13;;;4.98;100.00
74346;BME280;62776;50.518;6.732;2023-02-01T17:25:45;96944.13;;;4.91;100.00
74346;BME280;62776;50.518;6.732;2023-02-01T17:28:39;96944.25;;;4.97;100.00
74346;BME280;62776;50.518;6.732;2023-02-01T17:31:42;96953.56;;;4.90;100.00
74346;BME280;62776;50.518;6.732;2023-02-01T17:35:00;96944.97;;;4.88;100.00
74346;BME280;62776;50.518;6.732;2023-02-01T17:37:48;96947.53;;;4.90;100.00
74346;BME280;62776;50.518;6.732;2023-02-01T17:44:24;96955.13;;;4.81;100.00
74346;BME280;62776;50.518;6.732;2023-02-01T17:47:13;96943.03;;;4.76;100.00
74346;BME280;62776;50.518;6.732;2023-02-01T17:50:09;96954.22;;;4.78;100.00
74346;BME280;62776;50.518;6.732;2023-02-01T17:56:27;96954.81;;;4.65;100.00
74346;BME280;62776;50.518;6.732;2023-02-01T17:59:20;96952.38;;;4.71;100.00
74346;BME280;62776;50.518;6.732;2023-02-01T18:02:28;96940.88;;;4.53;100.00
74346;BME280;62776;50.518;6.732;2023-02-01T18:09:02;96967.63;;;4.62;100.00
74346;BME280;62776;50.518;6.732;2023-02-01T18:12:11;96959.84;;;4.58;100.00
74346;BME280;62776;50.518;6.732;2023-02-01T18:15:20;96967.44;;;4.53;100.00
74346;BME280;62776;50.518;6.732;2023-02-01T18:18:15;96964.19;;;4.18;100.00
74346;BME280;62776;50.518;6.732;2023-02-01T18:21:06;96970.84;;;4.51;100.00